Cleveland, Ohio
Traffic Map
Current Weather Conditions
Cleveland, Ohio
Clear
Clear
22°
Feels Like: 22°
Wind Chill: 22° Ceiling: Unl
Heat Index: 22° Visibility: 10mi
Dew Point: 16° Wind: 3mph
Humidity: 68% Direction: ° ()
Pressure: 30.12in Gusts: 0mph
Raw Report DataKBKL 221253Z VRB03KT 10SM CLR 22/16 A3012 RMK AO2 SLP195 T02170156 $
Traffic Incident Summary
Active as of:
Severity:
Category:
InformationThere was an issue retrieving the traffic information for this location. Please try a different location or try again shortly.
Advertisements